Sds Green — ICOK — position and weather

sailwx.info

Track history (hours):
 
Tides and Currents Weather Stations Pressure Air Temp Water Temp Dewpoint Dewpoint Depression Visibility Wind Speed Wind Dir Waves Ship Positions

Sds Green

Last reported at 2014-Aug-23 02:14 UTC. Time now 2014-Aug-23 17:20 UTC.
Position N 37°35' E 003°21'.

Length 108 m; draft 7 m.

Type: Cargo ship. MMSI: 247292200.

Date/timePositionNaut miles runAvg speedWind from/ knotsBaromVisibWave heightAir tempDewpointWater temp
2014-Aug-23 02:14N 37°35' E 003°21'23012.2
2014-Aug-22 07:24N 37°42' E 008°11'1011.9
2014-Aug-22 06:33N 37°42' E 008°24'1212.0
2014-Aug-22 05:33N 37°43' E 008°39'1211.6
2014-Aug-22 04:34N 37°43' E 008°53'1410.9
2014-Aug-22 03:18N 37°43' E 009°11'3111.0
2014-Aug-22 00:28N 37°43' E 009°50'1111.0
2014-Aug-21 23:27N 37°43' E 010°04'1011.1
2014-Aug-21 22:33N 37°43' E 010°17'2311.4
2014-Aug-21 20:34N 37°41' E 010°45'2411.8
2014-Aug-21 18:33N 37°38' E 011°15'8311.8
2014-Aug-21 11:33N 37°21' E 012°57'1212.4
2014-Aug-21 10:33N 37°15' E 013°11'1312.5
2014-Aug-21 09:34N 37°09' E 013°25'1312.7
2014-Aug-21 08:33N 37°04' E 013°39'1312.8
2014-Aug-21 07:33N 36°58' E 013°53'1312.6
2014-Aug-21 06:33N 36°52' E 014°07'1212.1
2014-Aug-21 05:33N 36°46' E 014°20'1711.8
2014-Aug-21 04:07N 36°39' E 014°40'711.9
2014-Aug-21 03:33N 36°38' E 014°48'1211.9
2014-Aug-21 02:33N 36°36' E 015°03'1111.3
2014-Aug-21 01:34N 36°35' E 015°17'35211.7
2014-Aug-19 19:32N 36°23' E 022°34'26011.8
2014-Aug-18 21:32N 39°52' E 025°52'14810.5
2014-Aug-18 07:28N 40°55' E 028°47'1010.4
2014-Aug-18 06:33N 40°58' E 028°59'  
2014-Aug-13 08:33N 42°09' E 028°26'  
Track history (hours):
 
Tides and Currents Weather Stations Pressure Air Temp Water Temp Dewpoint Dewpoint Depression Visibility Wind Speed Wind Dir Waves Ship Positions

Sds Green

Last reported at 2014-Aug-23 02:14 UTC. Time now 2014-Aug-23 17:20 UTC.
Position N 37°35' E 003°21'.

Length 108 m; draft 7 m.

Type: Cargo ship. MMSI: 247292200.

Date/timePositionNaut miles runAvg speedWind from/ knotsBaromVisibWave heightAir tempDewpointWater temp
2014-Aug-23 02:14N 37°35' E 003°21'23012.2
2014-Aug-22 07:24N 37°42' E 008°11'1011.9
2014-Aug-22 06:33N 37°42' E 008°24'1212.0
2014-Aug-22 05:33N 37°43' E 008°39'1211.6
2014-Aug-22 04:34N 37°43' E 008°53'1410.9
2014-Aug-22 03:18N 37°43' E 009°11'3111.0
2014-Aug-22 00:28N 37°43' E 009°50'1111.0
2014-Aug-21 23:27N 37°43' E 010°04'1011.1
2014-Aug-21 22:33N 37°43' E 010°17'2311.4
2014-Aug-21 20:34N 37°41' E 010°45'2411.8
2014-Aug-21 18:33N 37°38' E 011°15'8311.8
2014-Aug-21 11:33N 37°21' E 012°57'1212.4
2014-Aug-21 10:33N 37°15' E 013°11'1312.5
2014-Aug-21 09:34N 37°09' E 013°25'1312.7
2014-Aug-21 08:33N 37°04' E 013°39'1312.8
2014-Aug-21 07:33N 36°58' E 013°53'1312.6
2014-Aug-21 06:33N 36°52' E 014°07'1212.1
2014-Aug-21 05:33N 36°46' E 014°20'1711.8
2014-Aug-21 04:07N 36°39' E 014°40'711.9
2014-Aug-21 03:33N 36°38' E 014°48'1211.9
2014-Aug-21 02:33N 36°36' E 015°03'1111.3
2014-Aug-21 01:34N 36°35' E 015°17'35211.7
2014-Aug-19 19:32N 36°23' E 022°34'26011.8
2014-Aug-18 21:32N 39°52' E 025°52'14810.5
2014-Aug-18 07:28N 40°55' E 028°47'1010.4
2014-Aug-18 06:33N 40°58' E 028°59'  
2014-Aug-13 08:33N 42°09' E 028°26'  

Dump ship's entire track history